createdAt,value
2018-10-17T00:00:48.659Z,11.00
2018-10-17T00:03:17.140Z,11.10
2018-10-17T00:05:45.698Z,10.93
2018-10-17T00:08:14.175Z,10.10
2018-10-17T00:10:42.742Z,11.45
2018-10-17T00:13:11.372Z,10.23
2018-10-17T00:15:39.998Z,10.80
2018-10-17T00:18:08.494Z,10.40
2018-10-17T00:20:37.013Z,10.95
2018-10-17T00:23:05.936Z,10.65
2018-10-17T00:25:34.549Z,11.03
2018-10-17T00:28:03.284Z,10.75
2018-10-17T00:30:31.833Z,10.50
2018-10-17T00:33:00.372Z,10.85
2018-10-17T00:35:28.930Z,11.53
2018-10-17T00:37:57.476Z,10.72
2018-10-17T00:40:26.058Z,11.13
2018-10-17T00:42:55.171Z,11.12
2018-10-17T00:45:23.698Z,11.12
2018-10-17T00:47:52.239Z,10.82
2018-10-17T00:50:20.842Z,10.95
2018-10-17T00:52:49.424Z,11.00
2018-10-17T00:55:17.923Z,11.13
2018-10-17T00:57:46.512Z,10.93
2018-10-17T01:00:14.993Z,10.83
2018-10-17T01:02:43.514Z,11.15
2018-10-17T01:05:12.141Z,11.07
2018-10-17T01:07:40.577Z,11.28
2018-10-17T01:10:09.099Z,10.58
2018-10-17T01:12:37.614Z,11.15
2018-10-17T01:15:06.197Z,11.10
2018-10-17T01:17:34.772Z,11.03
2018-10-17T01:20:03.526Z,11.53
2018-10-17T01:22:32.185Z,11.00
2018-10-17T01:25:00.746Z,10.65
2018-10-17T01:27:29.262Z,10.95
2018-10-17T01:29:57.801Z,10.80
2018-10-17T01:32:26.335Z,11.28
2018-10-17T01:34:54.929Z,11.50
2018-10-17T01:37:23.397Z,12.40
2018-10-17T01:39:51.876Z,11.12
2018-10-17T01:42:20.417Z,11.55
2018-10-17T01:44:48.968Z,12.07
2018-10-17T01:47:17.474Z,10.98
2018-10-17T01:49:46.025Z,11.00
2018-10-17T01:52:14.490Z,11.22
2018-10-17T01:54:45.981Z,11.68
2018-10-17T01:57:14.467Z,11.30
2018-10-17T01:59:43.011Z,11.65
2018-10-17T02:02:12.683Z,11.10
2018-10-17T02:04:41.200Z,10.93
2018-10-17T02:07:09.908Z,11.33
2018-10-17T02:09:38.435Z,10.82
2018-10-17T02:12:07.022Z,11.30
2018-10-17T02:14:35.601Z,11.50
2018-10-17T02:17:04.232Z,11.45
2018-10-17T02:19:32.779Z,11.88
2018-10-17T02:22:01.321Z,11.38
2018-10-17T02:24:29.962Z,11.60
2018-10-17T02:26:58.618Z,11.25
2018-10-17T02:29:27.222Z,10.30
2018-10-17T02:31:55.734Z,11.20
2018-10-17T02:34:24.327Z,11.57
2018-10-17T02:36:53.050Z,11.45
2018-10-17T02:39:21.627Z,11.38
2018-10-17T02:41:50.163Z,10.95
2018-10-17T02:44:18.646Z,11.43
2018-10-17T02:46:47.507Z,11.27
2018-10-17T02:49:19.105Z,12.10
2018-10-17T02:51:47.611Z,12.82
2018-10-17T02:54:16.130Z,11.67
2018-10-17T02:56:44.639Z,12.75
2018-10-17T02:59:13.241Z,11.90
2018-10-17T03:01:41.758Z,12.40
2018-10-17T03:04:10.304Z,12.33
2018-10-17T03:06:38.837Z,11.73
2018-10-17T03:09:08.600Z,12.28
2018-10-17T03:11:37.208Z,13.00
2018-10-17T03:14:05.695Z,12.65
2018-10-17T03:16:34.227Z,12.13
2018-10-17T03:19:02.787Z,12.43
2018-10-17T03:21:31.295Z,11.78
2018-10-17T03:23:59.840Z,12.30
2018-10-17T03:26:28.344Z,11.85
2018-10-17T03:28:56.941Z,12.63
2018-10-17T03:31:25.553Z,11.68
2018-10-17T03:33:54.217Z,11.40
2018-10-17T03:36:22.812Z,11.65
2018-10-17T03:38:51.324Z,11.30
2018-10-17T03:41:19.934Z,11.75
2018-10-17T03:43:48.452Z,11.57
2018-10-17T03:46:17.030Z,11.15
2018-10-17T03:48:45.835Z,11.17
2018-10-17T03:51:14.520Z,11.30
2018-10-17T03:53:43.032Z,11.10
2018-10-17T03:56:11.656Z,11.33
2018-10-17T03:58:40.190Z,11.38
2018-10-17T04:01:08.762Z,12.13
2018-10-17T04:03:37.324Z,11.63
2018-10-17T04:06:06.218Z,12.00
2018-10-17T04:08:34.750Z,11.85
2018-10-17T04:11:03.677Z,11.30
2018-10-17T04:13:32.200Z,13.13
2018-10-17T04:16:00.730Z,11.75
2018-10-17T04:18:29.231Z,11.47
2018-10-17T04:20:57.716Z,12.35
2018-10-17T04:23:26.273Z,12.15
2018-10-17T04:25:54.804Z,13.10
2018-10-17T04:28:23.318Z,12.68
2018-10-17T04:30:52.177Z,13.35
2018-10-17T04:33:20.660Z,13.40
2018-10-17T04:35:49.253Z,13.08
2018-10-17T04:38:17.813Z,13.43
2018-10-17T04:40:46.406Z,13.08
2018-10-17T04:43:15.007Z,12.63
2018-10-17T04:45:43.547Z,13.22
2018-10-17T04:48:12.171Z,13.10
2018-10-17T04:50:40.724Z,13.60
2018-10-17T04:53:09.307Z,12.78
2018-10-17T04:55:37.832Z,13.03
2018-10-17T04:58:06.386Z,12.93
2018-10-17T05:00:34.891Z,13.00
2018-10-17T05:03:03.375Z,13.00
2018-10-17T05:05:31.899Z,12.47
2018-10-17T05:08:00.445Z,12.82
2018-10-17T05:10:28.999Z,12.28
2018-10-17T05:12:57.556Z,12.63
2018-10-17T05:15:26.209Z,12.73
2018-10-17T05:17:54.771Z,13.15
2018-10-17T05:20:23.356Z,12.65
2018-10-17T05:22:51.952Z,13.23
2018-10-17T05:25:20.511Z,12.90
2018-10-17T05:27:49.108Z,12.60
2018-10-17T05:30:17.695Z,13.07
2018-10-17T05:32:46.344Z,13.25
2018-10-17T05:35:14.916Z,13.22
2018-10-17T05:37:43.518Z,13.05
2018-10-17T05:40:12.128Z,12.85
2018-10-17T05:42:40.716Z,13.08
2018-10-17T05:45:09.464Z,12.98
2018-10-17T05:47:38.035Z,13.00
2018-10-17T05:50:06.624Z,13.08
2018-10-17T05:52:35.260Z,13.27
2018-10-17T05:55:03.969Z,13.25
2018-10-17T05:57:32.489Z,13.40
2018-10-17T06:00:01.028Z,13.13
2018-10-17T06:02:32.249Z,13.48
2018-10-17T06:05:00.874Z,13.00
2018-10-17T06:07:29.450Z,13.20
2018-10-17T06:09:58.040Z,13.38
2018-10-17T06:12:26.729Z,13.68
2018-10-17T06:14:55.357Z,13.45
2018-10-17T06:17:23.985Z,13.50
2018-10-17T06:19:52.533Z,13.80
2018-10-17T06:22:21.043Z,13.30
2018-10-17T06:24:49.724Z,13.45
2018-10-17T06:27:18.354Z,13.70
2018-10-17T06:29:46.912Z,13.80
2018-10-17T06:32:15.537Z,12.85
2018-10-17T06:37:43.426Z,13.93
2018-10-17T06:40:11.971Z,13.70
2018-10-17T06:42:40.587Z,13.48
2018-10-17T06:45:09.189Z,13.80
2018-10-17T06:47:37.708Z,14.23
2018-10-17T06:50:06.656Z,14.03
2018-10-17T06:52:35.220Z,14.00
2018-10-17T06:55:03.908Z,14.85
2018-10-17T06:57:32.409Z,14.75
2018-10-17T07:00:00.892Z,14.80
2018-10-17T07:02:29.417Z,15.70
2018-10-17T07:04:57.986Z,15.53
2018-10-17T07:07:26.507Z,16.42
2018-10-17T07:09:54.993Z,15.78
2018-10-17T07:12:23.557Z,15.65
2018-10-17T07:14:52.057Z,16.60
2018-10-17T07:17:20.620Z,15.55
2018-10-17T07:19:49.157Z,16.48
2018-10-17T07:22:17.660Z,15.98
2018-10-17T07:24:49.250Z,15.65
2018-10-17T07:27:17.778Z,15.60
2018-10-17T07:29:46.469Z,15.75
2018-10-17T07:32:14.918Z,16.65
2018-10-17T07:34:43.434Z,16.93
2018-10-17T07:37:12.065Z,17.17
2018-10-17T07:39:40.682Z,17.82
2018-10-17T07:42:09.312Z,17.42
2018-10-17T07:44:37.888Z,17.57
2018-10-17T07:47:06.570Z,17.37
2018-10-17T07:49:35.145Z,17.17
2018-10-17T07:52:03.666Z,17.53
2018-10-17T07:54:32.225Z,17.20
2018-10-17T07:57:00.762Z,17.80
2018-10-17T07:59:29.582Z,16.40
2018-10-17T08:01:58.109Z,16.55
2018-10-17T08:04:26.688Z,16.30
2018-10-17T08:06:55.414Z,15.55
2018-10-17T08:09:23.997Z,16.67
2018-10-17T08:11:52.627Z,15.23
2018-10-17T08:14:21.382Z,15.58
2018-10-17T08:16:49.983Z,15.60
2018-10-17T08:19:18.523Z,15.60
2018-10-17T08:21:47.108Z,15.10
2018-10-17T08:24:15.696Z,14.55
2018-10-17T08:26:44.223Z,14.47
2018-10-17T08:29:12.930Z,13.70
2018-10-17T08:31:41.486Z,14.60
2018-10-17T08:34:10.032Z,14.07
2018-10-17T08:36:38.780Z,13.48
2018-10-17T08:39:08.425Z,13.22
2018-10-17T08:41:37.022Z,12.07
2018-10-17T08:44:05.690Z,11.73
2018-10-17T08:46:34.448Z,11.03
2018-10-17T08:49:03.056Z,10.38
2018-10-17T08:51:31.635Z,10.43
2018-10-17T08:54:00.244Z,10.82
2018-10-17T08:56:28.793Z,10.20
2018-10-17T08:58:57.363Z,9.65
2018-10-17T09:01:25.943Z,9.63
2018-10-17T09:03:54.458Z,9.48
2018-10-17T09:06:23.006Z,8.78
2018-10-17T09:08:51.516Z,9.88
2018-10-17T09:11:20.006Z,9.70
2018-10-17T09:13:48.829Z,9.18
2018-10-17T09:16:17.545Z,9.40
2018-10-17T09:18:46.046Z,9.85
2018-10-17T09:21:14.884Z,8.23
2018-10-17T09:23:43.221Z,9.10
2018-10-17T09:26:11.755Z,9.40
2018-10-17T09:28:40.610Z,9.00
2018-10-17T09:31:09.163Z,8.58
2018-10-17T09:33:37.705Z,9.58
2018-10-17T09:36:07.039Z,9.47
2018-10-17T09:38:36.397Z,9.30
2018-10-17T09:41:05.641Z,9.15
2018-10-17T09:43:34.515Z,9.00
2018-10-17T09:46:03.308Z,8.95
2018-10-17T09:48:31.970Z,8.63
2018-10-17T09:51:00.699Z,9.00
2018-10-17T09:53:29.790Z,8.90
2018-10-17T09:55:58.418Z,8.83
2018-10-17T09:58:26.964Z,8.67
2018-10-17T10:01:00.959Z,8.50
2018-10-17T10:03:30.239Z,8.90
2018-10-17T10:06:00.232Z,8.53
2018-10-17T10:08:28.796Z,8.35
2018-10-17T10:10:57.470Z,8.60
2018-10-17T10:13:26.052Z,8.40
2018-10-17T10:15:54.668Z,8.28
2018-10-17T10:18:23.786Z,9.33
2018-10-17T10:20:52.355Z,8.68
2018-10-17T10:23:20.898Z,8.58
2018-10-17T10:25:49.627Z,8.35
2018-10-17T10:28:18.256Z,8.13
2018-10-17T10:30:46.709Z,7.77
2018-10-17T10:33:15.336Z,7.10
2018-10-17T10:35:43.850Z,7.08
2018-10-17T10:38:12.456Z,6.62
2018-10-17T10:40:41.154Z,7.05
2018-10-17T10:43:09.592Z,6.70
2018-10-17T10:45:38.178Z,6.57
2018-10-17T10:48:06.891Z,6.22
2018-10-17T10:50:35.382Z,6.58
2018-10-17T10:53:04.034Z,6.55
2018-10-17T10:55:32.506Z,6.60
2018-10-17T10:58:02.026Z,6.47
2018-10-17T11:00:30.662Z,6.28
2018-10-17T11:02:59.451Z,6.05
2018-10-17T11:05:28.280Z,5.97
2018-10-17T11:07:56.665Z,6.05
2018-10-17T11:10:25.292Z,5.92
2018-10-17T11:12:53.860Z,5.87
2018-10-17T11:15:22.634Z,6.08
2018-10-17T11:17:51.203Z,6.03
2018-10-17T11:20:19.799Z,6.53
2018-10-17T11:22:48.456Z,6.00
2018-10-17T11:25:17.069Z,6.25
2018-10-17T11:27:45.931Z,5.65
2018-10-17T11:30:14.557Z,5.60
2018-10-17T11:32:43.190Z,5.62
2018-10-17T11:35:11.922Z,5.73
2018-10-17T11:37:41.559Z,5.67
2018-10-17T11:40:10.315Z,5.53
2018-10-17T11:42:38.759Z,5.40
2018-10-17T11:45:07.711Z,5.67
2018-10-17T11:47:37.670Z,5.67
2018-10-17T11:50:07.898Z,5.70
2018-10-17T11:52:36.781Z,5.60
2018-10-17T11:55:06.136Z,4.75
2018-10-17T11:57:35.087Z,5.30
2018-10-17T12:00:04.062Z,5.00
2018-10-17T12:02:33.096Z,5.23
2018-10-17T12:05:01.916Z,5.30
2018-10-17T12:07:30.350Z,5.08
2018-10-17T12:09:58.962Z,5.00
2018-10-17T12:12:27.562Z,4.80
2018-10-17T12:14:56.146Z,5.15
2018-10-17T12:17:24.731Z,5.10
2018-10-17T12:19:53.349Z,5.15
2018-10-17T12:22:21.942Z,4.55
2018-10-17T12:24:51.789Z,4.90
2018-10-17T12:27:20.564Z,4.53
2018-10-17T12:29:49.116Z,4.78
2018-10-17T12:32:17.775Z,4.90
2018-10-17T12:34:46.432Z,4.80
2018-10-17T12:37:14.927Z,4.97
2018-10-17T12:40:14.584Z,4.83
2018-10-17T12:42:43.121Z,4.60
2018-10-17T12:45:11.770Z,4.65
2018-10-17T12:47:40.351Z,4.97
2018-10-17T12:50:09.690Z,4.80
2018-10-17T12:52:38.411Z,4.77
2018-10-17T12:55:07.518Z,4.72
2018-10-17T12:57:36.106Z,4.58
2018-10-17T13:00:04.928Z,4.58
2018-10-17T13:02:33.532Z,4.73
2018-10-17T13:05:02.148Z,4.50
2018-10-17T13:07:30.764Z,4.87
2018-10-17T13:09:59.668Z,5.17
2018-10-17T13:12:28.237Z,4.70
2018-10-17T13:14:56.853Z,5.20
2018-10-17T13:17:25.329Z,4.80
2018-10-17T13:19:53.825Z,4.78
2018-10-17T13:22:22.531Z,5.10
2018-10-17T13:24:51.058Z,5.00
2018-10-17T13:27:19.698Z,4.60
2018-10-17T13:29:48.705Z,4.83
2018-10-17T13:32:17.240Z,5.08
2018-10-17T13:34:46.030Z,4.40
2018-10-17T13:37:14.730Z,4.37
2018-10-17T13:39:43.293Z,4.87
2018-10-17T13:42:12.196Z,4.47
2018-10-17T13:44:40.872Z,5.10
2018-10-17T13:47:09.969Z,5.37
2018-10-17T13:49:38.810Z,4.75
2018-10-17T13:52:07.198Z,4.63
2018-10-17T13:54:35.815Z,4.95
2018-10-17T13:57:09.009Z,4.80
2018-10-17T13:59:37.625Z,4.75
2018-10-17T14:02:06.385Z,4.83
2018-10-17T14:04:35.821Z,4.90
2018-10-17T14:07:05.422Z,4.80
2018-10-17T14:09:34.585Z,4.67
2018-10-17T14:12:03.917Z,5.17
2018-10-17T14:14:32.926Z,4.85
2018-10-17T14:17:02.623Z,5.30
2018-10-17T14:19:31.721Z,5.60
2018-10-17T14:22:00.943Z,5.17
2018-10-17T14:24:30.058Z,5.30
2018-10-17T14:26:58.759Z,5.20
2018-10-17T14:29:27.411Z,5.47
2018-10-17T14:31:56.330Z,5.00
2018-10-17T14:34:24.911Z,5.00
2018-10-17T14:36:53.575Z,4.90
2018-10-17T14:39:22.168Z,5.53
2018-10-17T14:41:50.687Z,5.60
2018-10-17T14:44:19.219Z,5.95
2018-10-17T14:46:47.743Z,5.77
2018-10-17T14:49:16.436Z,5.97
2018-10-17T14:51:45.038Z,5.15
2018-10-17T14:54:14.164Z,5.80
2018-10-17T14:56:43.564Z,5.85
2018-10-17T14:59:12.781Z,5.75
2018-10-17T15:01:42.338Z,5.85
2018-10-17T15:04:11.730Z,5.87
2018-10-17T15:06:40.299Z,5.70
2018-10-17T15:09:09.647Z,6.00
2018-10-17T15:11:39.386Z,5.43
2018-10-17T15:14:07.895Z,5.80
2018-10-17T15:16:36.742Z,6.35
2018-10-17T15:19:05.817Z,6.10
2018-10-17T15:21:34.439Z,5.40
2018-10-17T15:24:03.074Z,5.67
2018-10-17T15:26:31.752Z,6.12
2018-10-17T15:29:00.323Z,5.90
2018-10-17T15:31:29.007Z,5.87
2018-10-17T15:33:57.667Z,5.78
2018-10-17T15:36:26.261Z,6.50
2018-10-17T15:38:55.616Z,6.20
2018-10-17T15:41:25.319Z,6.62
2018-10-17T15:43:54.318Z,6.15
2018-10-17T15:46:22.942Z,6.05
2018-10-17T15:48:51.514Z,7.50
2018-10-17T15:51:21.058Z,6.70
2018-10-17T15:53:49.589Z,6.33
2018-10-17T15:56:18.154Z,6.62
2018-10-17T15:58:46.733Z,6.53
2018-10-17T16:01:15.284Z,6.53
2018-10-17T16:03:44.462Z,7.08
2018-10-17T16:06:13.310Z,6.97
2018-10-17T16:08:41.833Z,6.83
2018-10-17T16:11:10.315Z,7.07
2018-10-17T16:13:38.855Z,6.92
2018-10-17T16:16:07.399Z,6.72
2018-10-17T16:18:35.956Z,7.55
2018-10-17T16:21:05.048Z,7.73
2018-10-17T16:23:33.850Z,7.60
2018-10-17T16:26:02.549Z,7.55
2018-10-17T16:28:32.360Z,7.13
2018-10-17T16:31:00.992Z,7.35
2018-10-17T16:33:29.550Z,8.10
2018-10-17T16:35:58.239Z,7.40
2018-10-17T16:38:26.783Z,7.90
2018-10-17T16:40:55.323Z,7.80
2018-10-17T16:43:23.993Z,8.30
2018-10-17T16:45:52.619Z,8.25
2018-10-17T16:48:21.783Z,8.35
2018-10-17T16:50:50.502Z,8.00
2018-10-17T16:53:19.050Z,9.00
2018-10-17T16:55:47.651Z,8.57
2018-10-17T16:58:16.330Z,8.88
2018-10-17T17:00:44.864Z,8.73
2018-10-17T17:03:13.421Z,9.25
2018-10-17T17:05:42.256Z,9.80
2018-10-17T17:08:10.827Z,9.90
2018-10-17T17:10:39.398Z,9.93
2018-10-17T17:13:07.851Z,9.70
2018-10-17T17:15:36.451Z,9.55
2018-10-17T17:18:05.076Z,11.43
2018-10-17T17:20:33.624Z,11.23
2018-10-17T17:23:02.197Z,11.83
2018-10-17T17:25:30.752Z,11.68
2018-10-17T17:27:59.249Z,12.07
2018-10-17T17:30:27.800Z,12.68
2018-10-17T17:32:56.573Z,11.63
2018-10-17T17:35:25.889Z,11.60
2018-10-17T17:37:54.820Z,11.53
2018-10-17T17:40:23.459Z,11.00
2018-10-17T17:42:51.974Z,11.65
2018-10-17T17:45:20.897Z,11.27
2018-10-17T17:47:49.519Z,11.50
2018-10-17T17:50:18.092Z,11.68
2018-10-17T17:52:46.636Z,11.53
2018-10-17T17:55:15.293Z,11.93
2018-10-17T17:57:43.942Z,11.30
2018-10-17T18:00:12.507Z,10.93
2018-10-17T18:02:41.067Z,11.57
2018-10-17T18:05:09.616Z,11.40
2018-10-17T18:07:38.475Z,12.05
2018-10-17T18:10:07.625Z,12.20
2018-10-17T18:12:36.233Z,12.07
2018-10-17T18:15:05.206Z,12.10
2018-10-17T18:17:33.741Z,12.60
2018-10-17T18:20:02.405Z,12.43
2018-10-17T18:22:31.106Z,12.78
2018-10-17T18:25:02.362Z,12.25
2018-10-17T18:27:30.926Z,13.43
2018-10-17T18:29:59.441Z,13.93
2018-10-17T18:32:27.988Z,14.93
2018-10-17T18:34:56.698Z,16.20
2018-10-17T18:37:25.332Z,16.12
2018-10-17T18:39:53.819Z,16.45
2018-10-17T18:42:22.393Z,15.85
2018-10-17T18:44:50.896Z,15.93
2018-10-17T18:47:19.573Z,15.25
2018-10-17T18:49:48.123Z,15.97
2018-10-17T18:52:16.684Z,15.58
2018-10-17T18:54:45.237Z,15.63
2018-10-17T18:57:13.840Z,15.45
2018-10-17T18:59:42.318Z,15.53
2018-10-17T19:02:10.870Z,16.30
2018-10-17T19:04:39.393Z,15.70
2018-10-17T19:07:08.755Z,16.00
2018-10-17T19:09:38.358Z,16.48
2018-10-17T19:12:07.139Z,16.50
2018-10-17T19:14:35.720Z,15.28
2018-10-17T19:17:04.793Z,16.93
2018-10-17T19:19:33.500Z,16.75
2018-10-17T19:22:02.436Z,16.80
2018-10-17T19:24:30.973Z,16.82
2018-10-17T19:26:59.598Z,16.07
2018-10-17T19:29:28.167Z,16.80
2018-10-17T19:31:56.767Z,17.37
2018-10-17T19:34:25.312Z,17.37
2018-10-17T19:36:53.892Z,17.67
2018-10-17T19:39:22.441Z,17.60
2018-10-17T19:41:51.008Z,17.92
2018-10-17T19:44:19.507Z,16.55
2018-10-17T19:46:48.069Z,18.25
2018-10-17T19:49:16.594Z,16.15
2018-10-17T19:51:45.239Z,18.15
2018-10-17T19:54:13.784Z,17.50
2018-10-17T19:56:42.403Z,17.70
2018-10-17T19:59:10.922Z,18.65
2018-10-17T20:01:39.536Z,18.37
2018-10-17T20:04:08.023Z,18.95
2018-10-17T20:06:36.611Z,19.75
2018-10-17T20:09:08.198Z,19.45
2018-10-17T20:11:36.857Z,19.48
2018-10-17T20:14:05.429Z,19.45
2018-10-17T20:16:33.991Z,18.57
2018-10-17T20:19:02.560Z,19.82
2018-10-17T20:21:31.195Z,19.45
2018-10-17T20:24:00.474Z,18.95
2018-10-17T20:26:29.007Z,19.07
2018-10-17T20:28:57.563Z,19.27
2018-10-17T20:31:26.176Z,18.80
2018-10-17T20:33:54.711Z,19.65
2018-10-17T20:36:23.408Z,18.57
2018-10-17T20:38:51.930Z,19.30
2018-10-17T20:41:20.540Z,19.55
2018-10-17T20:43:49.114Z,19.25
2018-10-17T20:46:17.648Z,19.35
2018-10-17T20:48:46.248Z,19.48
2018-10-17T20:51:14.798Z,19.55
2018-10-17T20:53:43.371Z,18.92
2018-10-17T20:56:11.996Z,19.80
2018-10-17T20:58:40.466Z,19.48
2018-10-17T21:01:09.010Z,20.25
2018-10-17T21:03:37.519Z,20.40
2018-10-17T21:06:06.242Z,21.33
2018-10-17T21:08:34.711Z,21.50
2018-10-17T21:11:03.316Z,20.97
2018-10-17T21:13:31.826Z,21.40
2018-10-17T21:16:00.370Z,21.43
2018-10-17T21:18:28.985Z,21.48
2018-10-17T21:20:57.451Z,23.07
2018-10-17T21:23:25.994Z,21.68
2018-10-17T21:25:54.514Z,22.33
2018-10-17T21:28:23.164Z,22.00
2018-10-17T21:30:51.707Z,21.50
2018-10-17T21:33:20.275Z,20.52
2018-10-17T21:35:48.879Z,20.25
2018-10-17T21:38:17.407Z,21.33
2018-10-17T21:40:45.945Z,20.90
2018-10-17T21:43:14.446Z,22.13
2018-10-17T21:45:43.027Z,20.82
2018-10-17T21:48:11.504Z,20.65
2018-10-17T21:50:40.068Z,21.15
2018-10-17T21:53:08.576Z,21.05
2018-10-17T21:55:37.129Z,20.12
2018-10-17T21:58:05.640Z,20.15
2018-10-17T22:00:34.225Z,19.70
2018-10-17T22:03:02.671Z,20.45
2018-10-17T22:05:31.236Z,20.20
2018-10-17T22:07:59.779Z,20.37
2018-10-17T22:10:28.262Z,20.77
2018-10-17T22:12:56.757Z,20.10
2018-10-17T22:15:25.449Z,20.25
2018-10-17T22:17:53.935Z,19.57
2018-10-17T22:20:22.496Z,20.32
2018-10-17T22:22:50.985Z,21.20
2018-10-17T22:25:19.509Z,22.35
2018-10-17T22:27:48.142Z,22.37
2018-10-17T22:30:16.641Z,22.17
2018-10-17T22:32:45.180Z,22.67
2018-10-17T22:35:13.911Z,23.07
2018-10-17T22:37:42.452Z,24.80
2018-10-17T22:40:10.962Z,24.67
2018-10-17T22:42:39.460Z,24.47
2018-10-17T22:45:07.973Z,24.47
2018-10-17T22:47:36.517Z,24.92
2018-10-17T22:50:06.397Z,23.80
2018-10-17T22:52:34.892Z,23.98
2018-10-17T22:55:03.524Z,24.93
2018-10-17T22:57:32.042Z,24.30
2018-10-17T23:00:00.607Z,25.17
2018-10-17T23:02:29.145Z,24.60
2018-10-17T23:05:00.540Z,23.92
2018-10-17T23:07:29.880Z,23.77
2018-10-17T23:09:58.375Z,23.32
2018-10-17T23:12:26.948Z,24.02
2018-10-17T23:14:55.480Z,23.55
2018-10-17T23:17:24.016Z,23.38
2018-10-17T23:19:52.517Z,24.00
2018-10-17T23:22:27.975Z,23.12
2018-10-17T23:24:56.491Z,22.85
2018-10-17T23:27:25.051Z,23.02
2018-10-17T23:29:53.556Z,22.55
2018-10-17T23:32:22.088Z,22.67
2018-10-17T23:34:50.589Z,23.53
2018-10-17T23:37:19.149Z,22.93
2018-10-17T23:39:47.609Z,23.97
2018-10-17T23:42:16.211Z,22.95
2018-10-17T23:44:44.683Z,23.10
2018-10-17T23:47:13.189Z,23.83
2018-10-17T23:49:41.734Z,23.57
2018-10-17T23:52:10.222Z,24.07
2018-10-17T23:54:38.786Z,22.37
2018-10-17T23:57:07.347Z,23.12
2018-10-17T23:59:35.832Z,23.95
